Startpagina
METAR-TAF:

METAR-TAF

Vliegvelden :

Uruguaiana, Rio Grande do Sul, Brazilië

breedte: 29-47S, lengte: 057-02W, hoogte: 74 m

METAR: ontbreekt

Tijdstip: 19:10 (22:10 UTC)

Verwachting

Dit bericht is 6 uur en het 10 minuten geleden gemaakt, om 16:00 UTC
Verwachting geldig van 23 om 18 UTC tot 24 om 06 UTC
Wind 8 kt uit het oosten
Zicht 10 km of meer
geen wolken onder 1500 m en geen cumulonimbus

TAF: SBUG 231600Z 2318/2406 08008KT CAVOK TX28/2318Z TN18/2406Z RMK PDJ

Waarnemingen en weersverwachtingen van meer dan 4000 vliegvelden (METAR en TAF).

De beschikbare stations zijn de gele en rode punten op de kaart.

Ga met uw muis naar het station om de naam te zien.

Klik dan om waarnemingen en weersverwachtingen te zien.

kaart wijzigen: klik op de groene knoppen met een zwart kruis om in te zoomen, op de groene knop met een streepje om uit te zoomen of op de groene pijlen voor aangrenzende kaarten.


METAR-TAF: